Lynn Haven, Florida
Current Conditions -  °F | °C
As of 6:21 PM on Monday 22 Dec 2014 (Local Time) from KECP Reporting Station
Haze Haze  
Wind Chill: 64°   Ceiling: 1600
Heat Index: 64°   Visibility: 2mi
Dew Point: 63°   Wind: 3mph
Humidity: 94%   Direction: 130°SE
Pressure: 29.82"   Gusts: NA
Location:  30.24°N, 85.65°W
Report Text: KECP 230021Z 13003KT 2SM BR OVC016 18/17 A2982 RMK AO2 MIFG $
Loading
Personal Weather Stations






























Interactive Weather Map New forecast layout! Learn more

10-Day Weather Forecast

Advertisements
Track Severe Weather on mobile